createdAt,value
2018-04-17T00:00:09.407Z,0.00
2018-04-17T00:01:09.593Z,0.00
2018-04-17T00:02:09.781Z,0.00
2018-04-17T00:03:09.956Z,0.00
2018-04-17T00:04:10.136Z,0.00
2018-04-17T00:05:10.324Z,0.00
2018-04-17T00:06:10.500Z,0.00
2018-04-17T00:07:10.680Z,0.00
2018-04-17T00:08:10.858Z,0.00
2018-04-17T00:09:11.113Z,0.00
2018-04-17T00:10:11.178Z,0.00
2018-04-17T00:11:11.362Z,0.00
2018-04-17T00:12:11.541Z,0.00
2018-04-17T00:13:11.727Z,0.00
2018-04-17T00:14:11.905Z,0.00
2018-04-17T00:15:12.089Z,0.00
2018-04-17T00:16:12.270Z,0.00
2018-04-17T00:17:12.451Z,0.00
2018-04-17T00:18:12.626Z,0.00
2018-04-17T00:19:12.803Z,0.00
2018-04-17T00:20:12.987Z,0.00
2018-04-17T00:21:13.170Z,0.00
2018-04-17T00:22:13.347Z,0.00
2018-04-17T00:23:13.527Z,0.00
2018-04-17T00:24:13.710Z,0.00
2018-04-17T00:25:13.888Z,0.00
2018-04-17T00:26:14.068Z,0.00
2018-04-17T00:27:14.279Z,0.00
2018-04-17T00:28:14.462Z,0.00
2018-04-17T00:29:14.647Z,0.00
2018-04-17T00:30:14.818Z,0.00
2018-04-17T00:31:15.000Z,0.00
2018-04-17T00:32:15.179Z,0.00
2018-04-17T00:33:15.358Z,0.00
2018-04-17T00:34:15.544Z,0.00
2018-04-17T00:35:15.740Z,0.00
2018-04-17T00:36:15.930Z,0.00
2018-04-17T00:37:16.107Z,0.00
2018-04-17T00:38:16.287Z,0.00
2018-04-17T00:39:16.465Z,0.00
2018-04-17T00:40:16.646Z,0.00
2018-04-17T00:41:16.828Z,0.00
2018-04-17T00:42:17.008Z,0.00
2018-04-17T00:43:17.185Z,0.00
2018-04-17T00:44:17.370Z,0.00
2018-04-17T00:45:17.551Z,0.00
2018-04-17T00:46:17.728Z,0.00
2018-04-17T00:47:17.916Z,0.00
2018-04-17T00:48:18.091Z,0.00
2018-04-17T00:49:18.278Z,0.00
2018-04-17T00:50:18.450Z,0.00
2018-04-17T00:51:23.089Z,0.00
2018-04-17T00:52:18.760Z,0.00
2018-04-17T00:53:23.187Z,0.00
2018-04-17T00:54:19.356Z,0.00
2018-04-17T00:55:19.579Z,0.00
2018-04-17T00:56:19.528Z,0.00
2018-04-17T00:57:19.703Z,0.00
2018-04-17T00:58:19.884Z,0.00
2018-04-17T00:59:20.072Z,0.00
2018-04-17T01:00:20.245Z,0.00
2018-04-17T01:01:20.433Z,0.00
2018-04-17T01:02:20.603Z,0.00
2018-04-17T01:03:20.779Z,0.00
2018-04-17T01:04:20.955Z,0.00
2018-04-17T01:05:21.127Z,0.00
2018-04-17T01:06:21.313Z,0.00
2018-04-17T01:07:21.491Z,0.00
2018-04-17T01:08:22.763Z,0.00
2018-04-17T01:09:21.887Z,0.00
2018-04-17T01:10:22.065Z,0.00
2018-04-17T01:11:22.243Z,0.00
2018-04-17T01:12:22.421Z,0.00
2018-04-17T01:13:22.605Z,0.00
2018-04-17T01:14:22.781Z,0.00
2018-04-17T01:15:22.961Z,0.00
2018-04-17T01:16:23.141Z,0.00
2018-04-17T01:17:23.319Z,0.00
2018-04-17T01:18:23.502Z,0.00
2018-04-17T01:19:23.686Z,0.00
2018-04-17T01:20:23.862Z,0.00
2018-04-17T01:21:24.038Z,0.00
2018-04-17T01:22:24.219Z,0.00
2018-04-17T01:23:24.397Z,0.00
2018-04-17T01:24:24.583Z,0.00
2018-04-17T01:25:24.755Z,0.00
2018-04-17T01:26:24.934Z,0.00
2018-04-17T01:27:25.115Z,0.00
2018-04-17T01:28:25.301Z,0.00
2018-04-17T01:29:25.500Z,0.00
2018-04-17T01:30:25.650Z,0.00
2018-04-17T01:31:25.830Z,0.00
2018-04-17T01:32:26.012Z,0.00
2018-04-17T01:33:26.197Z,0.00
2018-04-17T01:34:26.376Z,0.00
2018-04-17T01:35:26.551Z,0.00
2018-04-17T01:36:26.737Z,0.00
2018-04-17T01:37:26.916Z,0.00
2018-04-17T01:38:27.098Z,0.00
2018-04-17T01:39:27.278Z,0.00
2018-04-17T01:40:27.464Z,0.00
2018-04-17T01:41:27.638Z,0.00
2018-04-17T01:42:27.817Z,0.00
2018-04-17T01:43:27.999Z,0.00
2018-04-17T01:44:28.182Z,0.00
2018-04-17T01:45:28.363Z,0.00
2018-04-17T01:46:28.540Z,0.00
2018-04-17T01:47:28.713Z,0.00
2018-04-17T01:48:28.900Z,0.00
2018-04-17T01:49:29.082Z,0.00
2018-04-17T01:50:29.255Z,0.00
2018-04-17T01:51:29.433Z,0.00
2018-04-17T01:52:29.618Z,0.00
2018-04-17T01:53:29.799Z,0.00
2018-04-17T01:54:29.985Z,0.00
2018-04-17T01:55:30.167Z,0.00
2018-04-17T01:56:30.341Z,0.00
2018-04-17T01:57:30.523Z,0.00
2018-04-17T01:58:30.707Z,0.00
2018-04-17T01:59:30.893Z,0.00
2018-04-17T02:00:31.067Z,0.00
2018-04-17T02:01:31.251Z,0.00
2018-04-17T02:02:31.427Z,0.00
2018-04-17T02:03:31.608Z,0.00
2018-04-17T02:04:31.799Z,0.00
2018-04-17T02:05:31.973Z,0.00
2018-04-17T02:06:32.146Z,0.00
2018-04-17T02:07:32.326Z,0.00
2018-04-17T02:08:32.521Z,0.00
2018-04-17T02:09:32.696Z,0.00
2018-04-17T02:10:32.876Z,0.00
2018-04-17T02:11:33.061Z,0.00
2018-04-17T02:12:33.235Z,0.00
2018-04-17T02:13:33.416Z,0.00
2018-04-17T02:14:33.597Z,0.00
2018-04-17T02:15:33.771Z,0.00
2018-04-17T02:16:33.949Z,0.00
2018-04-17T02:17:34.131Z,0.00
2018-04-17T02:18:34.301Z,0.00
2018-04-17T02:19:34.477Z,0.00
2018-04-17T02:20:34.657Z,0.00
2018-04-17T02:21:34.841Z,0.00
2018-04-17T02:22:35.017Z,0.00
2018-04-17T02:23:35.196Z,0.00
2018-04-17T02:24:35.702Z,0.00
2018-04-17T02:25:35.839Z,0.00
2018-04-17T02:26:35.663Z,0.00
2018-04-17T02:27:35.844Z,0.00
2018-04-17T02:28:36.023Z,0.00
2018-04-17T02:29:36.198Z,0.00
2018-04-17T02:30:36.382Z,0.00
2018-04-17T02:31:36.560Z,0.00
2018-04-17T02:32:36.742Z,0.00
2018-04-17T02:33:36.923Z,0.00
2018-04-17T02:34:37.108Z,0.00
2018-04-17T02:35:37.283Z,0.00
2018-04-17T02:36:37.467Z,0.00
2018-04-17T02:37:37.642Z,0.00
2018-04-17T02:38:37.824Z,0.00
2018-04-17T02:39:38.002Z,0.00
2018-04-17T02:40:38.190Z,0.00
2018-04-17T02:41:38.367Z,0.00
2018-04-17T02:42:38.624Z,0.00
2018-04-17T02:43:38.693Z,0.00
2018-04-17T02:44:38.879Z,0.00
2018-04-17T02:45:39.051Z,0.00
2018-04-17T02:46:39.227Z,0.00
2018-04-17T02:47:39.418Z,0.00
2018-04-17T02:48:39.584Z,0.00
2018-04-17T02:49:39.760Z,0.00
2018-04-17T02:50:39.928Z,0.00
2018-04-17T02:51:40.109Z,0.00
2018-04-17T02:52:40.292Z,0.00
2018-04-17T02:53:40.467Z,0.00
2018-04-17T02:54:40.643Z,0.00
2018-04-17T02:55:40.815Z,0.00
2018-04-17T02:56:40.985Z,0.00
2018-04-17T02:57:41.167Z,0.00
2018-04-17T02:58:41.347Z,0.00
2018-04-17T02:59:41.525Z,0.00
2018-04-17T03:00:41.709Z,0.00
2018-04-17T03:01:41.887Z,0.00
2018-04-17T03:02:42.069Z,0.00
2018-04-17T03:03:42.240Z,0.00
2018-04-17T03:04:42.420Z,0.00
2018-04-17T03:05:42.602Z,0.00
2018-04-17T03:06:42.783Z,0.00
2018-04-17T03:07:42.960Z,0.00
2018-04-17T03:08:43.136Z,0.00
2018-04-17T03:09:43.316Z,0.00
2018-04-17T03:10:43.507Z,0.00
2018-04-17T03:11:43.681Z,0.00
2018-04-17T03:12:43.861Z,0.00
2018-04-17T03:13:44.035Z,0.00
2018-04-17T03:14:44.215Z,0.00
2018-04-17T03:15:44.392Z,0.00
2018-04-17T03:16:44.584Z,0.00
2018-04-17T03:17:44.764Z,0.00
2018-04-17T03:18:44.942Z,0.00
2018-04-17T03:19:45.120Z,0.00
2018-04-17T03:20:45.292Z,0.00
2018-04-17T03:21:45.474Z,0.00
2018-04-17T03:22:45.648Z,0.00
2018-04-17T03:23:45.829Z,0.00
2018-04-17T03:24:46.008Z,0.00
2018-04-17T03:25:46.184Z,0.00
2018-04-17T03:26:46.360Z,0.00
2018-04-17T03:27:46.537Z,0.00
2018-04-17T03:28:46.719Z,0.00
2018-04-17T03:29:46.895Z,0.00
2018-04-17T03:30:47.075Z,0.00
2018-04-17T03:31:47.255Z,0.00
2018-04-17T03:32:47.434Z,0.00
2018-04-17T03:33:47.615Z,0.00
2018-04-17T03:34:47.794Z,0.00
2018-04-17T03:35:47.975Z,0.00
2018-04-17T03:36:48.147Z,0.00
2018-04-17T03:37:48.333Z,0.00
2018-04-17T03:38:48.505Z,0.00
2018-04-17T03:39:48.681Z,0.00
2018-04-17T03:40:48.856Z,0.00
2018-04-17T03:41:50.241Z,0.00
2018-04-17T03:42:49.147Z,0.00
2018-04-17T03:43:49.318Z,0.00
2018-04-17T03:44:49.499Z,0.00
2018-04-17T03:45:49.679Z,0.00
2018-04-17T03:46:49.860Z,0.00
2018-04-17T03:47:50.045Z,0.00
2018-04-17T03:48:50.218Z,0.00
2018-04-17T03:49:50.401Z,0.00
2018-04-17T03:50:50.575Z,0.00
2018-04-17T03:51:50.761Z,0.00
2018-04-17T03:52:50.945Z,0.00
2018-04-17T03:53:51.133Z,0.00
2018-04-17T03:54:51.310Z,4.00
2018-04-17T03:55:51.490Z,4.00
2018-04-17T03:56:51.672Z,0.00
2018-04-17T03:57:51.855Z,4.00
2018-04-17T03:58:52.032Z,4.00
2018-04-17T03:59:52.207Z,4.00
2018-04-17T04:00:52.385Z,8.00
2018-04-17T04:01:52.560Z,8.00
2018-04-17T04:02:52.739Z,8.00
2018-04-17T04:03:52.915Z,12.00
2018-04-17T04:04:53.098Z,12.00
2018-04-17T04:05:53.275Z,16.00
2018-04-17T04:06:53.462Z,16.00
2018-04-17T04:07:53.638Z,20.00
2018-04-17T04:08:53.818Z,24.00
2018-04-17T04:09:53.997Z,24.00
2018-04-17T04:10:54.187Z,32.00
2018-04-17T04:11:54.379Z,36.00
2018-04-17T04:12:54.557Z,40.00
2018-04-17T04:13:54.741Z,48.00
2018-04-17T04:14:54.930Z,52.00
2018-04-17T04:15:55.107Z,60.00
2018-04-17T04:16:55.279Z,68.00
2018-04-17T04:17:55.456Z,76.00
2018-04-17T04:18:55.652Z,88.00
2018-04-17T04:19:55.831Z,96.00
2018-04-17T04:20:56.015Z,108.00
2018-04-17T04:21:56.221Z,120.00
2018-04-17T04:22:56.399Z,128.00
2018-04-17T04:23:56.564Z,144.00
2018-04-17T04:24:56.739Z,156.00
2018-04-17T04:25:56.917Z,172.00
2018-04-17T04:26:57.094Z,188.00
2018-04-17T04:27:57.266Z,204.00
2018-04-17T04:28:57.519Z,220.00
2018-04-17T04:29:57.657Z,240.00
2018-04-17T04:30:57.843Z,256.00
2018-04-17T04:31:58.017Z,276.00
2018-04-17T04:32:58.191Z,296.00
2018-04-17T04:33:58.371Z,320.00
2018-04-17T04:34:58.542Z,344.00
2018-04-17T04:35:58.724Z,360.00
2018-04-17T04:37:00.697Z,384.00
2018-04-17T04:37:59.094Z,400.00
2018-04-17T04:38:59.527Z,424.00
2018-04-17T04:39:59.400Z,444.00
2018-04-17T04:40:59.713Z,464.00
2018-04-17T04:41:59.726Z,496.00
2018-04-17T04:43:00.060Z,520.00
2018-04-17T04:44:00.051Z,548.00
2018-04-17T04:45:00.231Z,584.00
2018-04-17T04:46:00.414Z,624.00
2018-04-17T04:47:00.593Z,664.00
2018-04-17T04:48:00.774Z,696.00
2018-04-17T04:49:01.075Z,724.00
2018-04-17T04:50:01.069Z,752.00
2018-04-17T04:51:01.247Z,800.00
2018-04-17T04:52:01.423Z,848.00
2018-04-17T04:53:01.595Z,896.00
2018-04-17T04:54:01.781Z,956.00
2018-04-17T04:55:01.995Z,1004.00
2018-04-17T04:56:02.171Z,1060.00
2018-04-17T04:57:02.360Z,1116.00
2018-04-17T04:58:02.541Z,1176.00
2018-04-17T04:59:02.719Z,1224.00
2018-04-17T05:00:02.904Z,1272.00
2018-04-17T05:01:03.077Z,1308.00
2018-04-17T05:02:03.249Z,1356.00
2018-04-17T05:03:03.419Z,1396.00
2018-04-17T05:04:03.595Z,1448.00
2018-04-17T05:05:03.767Z,1520.00
2018-04-17T05:06:05.008Z,1596.00
2018-04-17T05:07:04.174Z,1688.00
2018-04-17T05:08:04.356Z,1784.00
2018-04-17T05:09:04.526Z,1860.00
2018-04-17T05:10:04.725Z,1936.00
2018-04-17T05:11:04.875Z,1980.00
2018-04-17T05:12:05.057Z,2016.00
2018-04-17T05:13:05.267Z,2040.00
2018-04-17T05:14:05.426Z,2088.00
2018-04-17T05:15:05.595Z,2164.00
2018-04-17T05:16:05.791Z,2300.00
2018-04-17T05:17:05.979Z,2448.00
2018-04-17T05:18:06.153Z,2508.00
2018-04-17T05:19:06.339Z,2552.00
2018-04-17T05:20:06.498Z,2640.00
2018-04-17T05:21:06.672Z,2704.00
2018-04-17T05:22:06.870Z,2780.00
2018-04-17T05:23:07.032Z,2892.00
2018-04-17T05:24:07.212Z,2988.00
2018-04-17T05:25:07.429Z,3124.00
2018-04-17T05:26:07.593Z,3156.00
2018-04-17T05:27:07.766Z,3252.00
2018-04-17T05:28:07.951Z,3364.00
2018-04-17T05:29:08.140Z,3584.00
2018-04-17T05:30:08.297Z,3884.00
2018-04-17T05:31:08.527Z,4224.00
2018-04-17T05:32:08.703Z,4540.00
2018-04-17T05:33:12.965Z,4920.00
2018-04-17T05:34:12.935Z,5416.00
2018-04-17T05:35:10.431Z,5732.00
2018-04-17T05:36:13.694Z,5988.00
2018-04-17T05:37:09.507Z,6156.00
2018-04-17T05:38:09.662Z,6372.00
2018-04-17T05:39:09.839Z,6492.00
2018-04-17T05:40:10.081Z,6576.00
2018-04-17T05:41:10.194Z,6628.00
2018-04-17T05:42:10.398Z,6676.00
2018-04-17T05:43:10.547Z,6720.00
2018-04-17T05:44:10.725Z,6812.00
2018-04-17T05:45:10.903Z,6908.00
2018-04-17T05:46:11.081Z,6916.00
2018-04-17T05:47:14.827Z,6760.00
2018-04-17T05:48:11.433Z,6408.00
2018-04-17T05:49:11.608Z,6320.00
2018-04-17T05:50:11.796Z,6332.00
2018-04-17T05:51:11.965Z,6532.00
2018-04-17T05:52:12.140Z,6872.00
2018-04-17T05:53:12.323Z,6660.00
2018-04-17T05:54:12.513Z,6672.00
2018-04-17T05:55:12.689Z,6872.00
2018-04-17T05:56:12.863Z,6976.00
2018-04-17T05:57:13.037Z,6896.00
2018-04-17T05:58:13.209Z,6324.00
2018-04-17T05:59:13.383Z,6324.00
2018-04-17T06:00:13.561Z,6328.00
2018-04-17T06:01:13.731Z,6260.00
2018-04-17T06:02:13.908Z,6132.00
2018-04-17T06:03:14.084Z,6204.00
2018-04-17T06:04:14.250Z,6432.00
2018-04-17T06:05:14.474Z,8644.00
2018-04-17T06:06:14.606Z,6332.00
2018-04-17T06:07:14.780Z,6324.00
2018-04-17T06:08:14.964Z,6628.00
2018-04-17T06:09:15.149Z,6920.00
2018-04-17T06:10:15.322Z,7712.00
2018-04-17T06:11:15.500Z,18048.00
2018-04-17T06:12:15.680Z,16064.00
2018-04-17T06:13:15.855Z,11796.00
2018-04-17T06:14:16.049Z,29728.00
2018-04-17T06:15:16.223Z,36000.00
2018-04-17T06:16:16.411Z,21216.00
2018-04-17T06:17:16.581Z,18464.00
2018-04-17T06:18:16.754Z,23264.00
2018-04-17T06:19:16.932Z,39040.00
2018-04-17T06:20:17.113Z,31296.00
2018-04-17T06:21:17.288Z,38144.00
2018-04-17T06:22:17.456Z,18432.00
2018-04-17T06:23:17.638Z,25856.00
2018-04-17T06:24:17.812Z,46336.00
2018-04-17T06:25:17.987Z,16480.00
2018-04-17T06:26:18.169Z,44352.00
2018-04-17T06:27:18.340Z,42016.00
2018-04-17T06:28:18.521Z,38304.00
2018-04-17T06:29:18.721Z,14984.00
2018-04-17T06:30:18.897Z,46272.00
2018-04-17T06:31:19.080Z,49888.00
2018-04-17T06:32:19.270Z,44960.00
2018-04-17T06:33:19.448Z,48672.00
2018-04-17T06:34:19.634Z,50784.00
2018-04-17T06:35:19.820Z,53536.00
2018-04-17T06:36:20.013Z,53536.00
2018-04-17T06:37:20.273Z,52608.00
2018-04-17T06:38:20.391Z,52192.00
2018-04-17T06:39:20.574Z,49920.00
2018-04-17T06:40:20.761Z,45888.00
2018-04-17T06:41:20.939Z,37472.00
2018-04-17T06:42:21.123Z,48864.00
2018-04-17T06:43:21.315Z,48288.00
2018-04-17T06:44:21.497Z,32704.00
2018-04-17T06:45:21.683Z,53696.00
2018-04-17T06:46:21.874Z,53088.00
2018-04-17T06:47:22.106Z,52896.00
2018-04-17T06:48:22.260Z,52256.00
2018-04-17T06:49:22.435Z,52512.00
2018-04-17T06:50:22.619Z,54496.00
2018-04-17T06:51:22.797Z,55872.00
2018-04-17T06:52:22.979Z,55040.00
2018-04-17T06:53:23.165Z,56224.00
2018-04-17T06:54:23.350Z,56736.00
2018-04-17T06:55:23.536Z,54272.00
2018-04-17T06:56:23.730Z,54240.00
2018-04-17T06:57:23.918Z,51872.00
2018-04-17T06:58:24.101Z,50592.00
2018-04-17T06:59:24.289Z,51904.00
2018-04-17T07:00:24.471Z,51232.00
2018-04-17T07:01:24.661Z,53632.00
2018-04-17T07:02:24.852Z,55936.00
2018-04-17T07:03:25.036Z,50432.00
2018-04-17T07:04:25.286Z,35296.00
2018-04-17T07:05:25.453Z,56576.00
2018-04-17T07:06:26.523Z,56096.00
2018-04-17T07:07:26.505Z,45152.00
2018-04-17T07:08:25.947Z,57216.00
2018-04-17T07:09:26.130Z,52096.00
2018-04-17T07:10:26.331Z,57696.00
2018-04-17T07:11:26.530Z,56704.00
2018-04-17T07:12:26.718Z,68224.00
2018-04-17T07:13:28.199Z,66144.00
2018-04-17T07:14:27.172Z,65600.00
2018-04-17T07:15:27.322Z,65152.00
2018-04-17T07:16:27.898Z,64416.00
2018-04-17T07:17:27.791Z,65600.00
2018-04-17T07:18:27.935Z,67456.00
2018-04-17T07:19:27.928Z,66688.00
2018-04-17T07:20:28.139Z,67680.00
2018-04-17T07:21:28.473Z,67232.00
2018-04-17T07:22:28.557Z,67552.00
2018-04-17T07:23:29.013Z,67104.00
2018-04-17T07:24:28.907Z,68480.00
2018-04-17T07:25:29.251Z,68192.00
2018-04-17T07:26:29.185Z,68448.00
2018-04-17T07:27:29.379Z,69024.00
2018-04-17T07:28:29.596Z,70112.00
2018-04-17T07:29:29.819Z,72448.00
2018-04-17T07:30:29.987Z,73184.00
2018-04-17T07:31:30.200Z,72864.00
2018-04-17T07:32:30.413Z,73280.00
2018-04-17T07:33:30.499Z,75040.00
2018-04-17T07:34:30.685Z,74336.00
2018-04-17T07:35:30.880Z,75712.00
2018-04-17T07:36:31.078Z,74016.00
2018-04-17T07:37:31.273Z,74592.00
2018-04-17T07:38:31.686Z,75392.00
2018-04-17T07:39:32.031Z,75680.00
2018-04-17T07:40:32.223Z,77088.00
2018-04-17T07:41:32.133Z,76448.00
2018-04-17T07:42:32.761Z,75360.00
2018-04-17T07:43:32.470Z,75744.00
2018-04-17T07:44:32.680Z,76032.00
2018-04-17T07:45:32.763Z,76480.00
2018-04-17T07:46:32.943Z,75456.00
2018-04-17T07:47:33.139Z,76448.00
2018-04-17T07:48:33.333Z,77440.00
2018-04-17T07:49:33.519Z,77056.00
2018-04-17T07:50:33.708Z,76992.00
2018-04-17T07:51:33.964Z,74624.00
2018-04-17T07:52:34.130Z,74528.00
2018-04-17T07:53:34.330Z,75360.00
2018-04-17T07:54:34.585Z,77120.00
2018-04-17T07:55:34.662Z,77184.00
2018-04-17T07:56:34.853Z,79968.00
2018-04-17T07:57:35.062Z,78752.00
2018-04-17T07:58:35.253Z,77952.00
2018-04-17T07:59:35.446Z,79808.00
2018-04-17T08:00:35.632Z,80352.00
2018-04-17T08:01:35.829Z,78080.00
2018-04-17T08:02:36.798Z,77728.00
2018-04-17T08:03:36.230Z,77888.00
2018-04-17T08:04:36.427Z,77376.00
2018-04-17T08:05:36.644Z,75904.00
2018-04-17T08:06:36.833Z,75680.00
2018-04-17T08:07:37.022Z,73152.00
2018-04-17T08:08:37.237Z,71776.00
2018-04-17T08:09:37.416Z,73152.00
2018-04-17T08:10:37.622Z,74560.00
2018-04-17T08:11:37.820Z,76128.00
2018-04-17T08:12:38.028Z,75456.00
2018-04-17T08:13:38.212Z,74624.00
2018-04-17T08:14:38.402Z,74560.00
2018-04-17T08:15:38.597Z,74528.00
2018-04-17T08:16:38.787Z,74784.00
2018-04-17T08:17:39.033Z,72800.00
2018-04-17T08:18:39.170Z,71488.00
2018-04-17T08:19:39.377Z,74880.00
2018-04-17T08:20:39.599Z,73344.00
2018-04-17T08:21:39.806Z,76896.00
2018-04-17T08:22:40.023Z,75552.00
2018-04-17T08:23:40.191Z,76352.00
2018-04-17T08:24:40.388Z,74752.00
2018-04-17T08:25:40.572Z,72384.00
2018-04-17T08:26:40.762Z,75392.00
2018-04-17T08:27:40.950Z,73440.00
2018-04-17T08:28:41.140Z,74240.00
2018-04-17T08:29:41.329Z,76576.00
2018-04-17T08:30:41.522Z,77120.00
2018-04-17T08:31:41.715Z,75776.00
2018-04-17T08:32:41.899Z,74976.00
2018-04-17T08:33:42.093Z,75904.00
2018-04-17T08:34:42.283Z,76320.00
2018-04-17T08:35:42.502Z,76512.00
2018-04-17T08:36:42.728Z,77760.00
2018-04-17T08:37:42.933Z,78048.00
2018-04-17T08:38:43.138Z,79264.00
2018-04-17T08:39:43.322Z,78208.00
2018-04-17T08:40:43.531Z,77952.00
2018-04-17T08:41:43.731Z,79712.00
2018-04-17T08:42:43.964Z,77984.00
2018-04-17T08:43:44.115Z,76352.00
2018-04-17T08:44:44.471Z,76928.00
2018-04-17T08:45:44.541Z,79264.00
2018-04-17T08:46:44.745Z,81600.00
2018-04-17T08:47:44.936Z,79904.00
2018-04-17T08:48:45.124Z,79296.00
2018-04-17T08:49:45.335Z,79776.00
2018-04-17T08:50:45.537Z,78304.00
2018-04-17T08:51:45.732Z,78688.00
2018-04-17T08:52:45.921Z,79840.00
2018-04-17T08:53:46.118Z,78080.00
2018-04-17T08:54:46.327Z,78400.00
2018-04-17T08:55:46.523Z,78976.00
2018-04-17T08:56:46.713Z,78112.00
2018-04-17T08:57:46.906Z,78208.00
2018-04-17T08:58:47.093Z,78976.00
2018-04-17T08:59:47.291Z,79680.00
2018-04-17T09:00:47.477Z,80544.00
2018-04-17T09:01:47.677Z,79488.00
2018-04-17T09:02:47.872Z,76384.00
2018-04-17T09:03:48.077Z,78240.00
2018-04-17T09:04:48.267Z,78080.00
2018-04-17T09:05:48.463Z,78016.00
2018-04-17T09:06:48.658Z,77504.00
2018-04-17T09:07:48.849Z,76416.00
2018-04-17T09:08:49.046Z,74720.00
2018-04-17T09:09:49.312Z,76928.00
2018-04-17T09:10:49.470Z,78112.00
2018-04-17T09:11:49.566Z,75776.00
2018-04-17T09:12:49.743Z,74816.00
2018-04-17T09:13:49.952Z,74752.00
2018-04-17T09:14:50.163Z,74944.00
2018-04-17T09:15:50.362Z,72032.00
2018-04-17T09:16:50.579Z,71200.00
2018-04-17T09:17:50.780Z,72192.00
2018-04-17T09:18:50.997Z,71104.00
2018-04-17T09:19:51.191Z,69696.00
2018-04-17T09:20:51.385Z,68800.00
2018-04-17T09:21:51.581Z,67328.00
2018-04-17T09:22:51.786Z,67840.00
2018-04-17T09:23:52.037Z,68512.00
2018-04-17T09:24:52.195Z,69632.00
2018-04-17T09:25:52.400Z,68864.00
2018-04-17T09:26:52.612Z,69024.00
2018-04-17T09:27:52.807Z,70016.00
2018-04-17T09:28:53.021Z,69536.00
2018-04-17T09:29:53.203Z,60992.00
2018-04-17T09:30:53.397Z,48864.00
2018-04-17T09:31:53.623Z,39232.00
2018-04-17T09:32:53.815Z,34048.00
2018-04-17T09:33:54.003Z,32448.00
2018-04-17T09:34:54.206Z,32160.00
2018-04-17T09:35:54.427Z,32128.00
2018-04-17T09:36:54.591Z,31904.00
2018-04-17T09:37:54.801Z,31744.00
2018-04-17T09:38:54.980Z,32000.00
2018-04-17T09:39:55.180Z,32032.00
2018-04-17T09:40:55.372Z,31360.00
2018-04-17T09:41:55.576Z,31040.00
2018-04-17T09:42:55.756Z,31392.00
2018-04-17T09:43:55.952Z,30816.00
2018-04-17T09:44:56.146Z,30592.00
2018-04-17T09:45:56.342Z,30112.00
2018-04-17T09:46:56.555Z,29632.00
2018-04-17T09:47:56.762Z,29600.00
2018-04-17T09:48:56.995Z,29312.00
2018-04-17T09:49:57.247Z,29280.00
2018-04-17T09:50:57.388Z,29152.00
2018-04-17T09:51:58.361Z,29216.00
2018-04-17T09:52:57.795Z,29248.00
2018-04-17T09:53:59.424Z,29152.00
2018-04-17T09:54:58.172Z,29120.00
2018-04-17T09:55:58.365Z,29376.00
2018-04-17T09:56:58.578Z,29792.00
2018-04-17T09:57:58.850Z,30368.00
2018-04-17T09:58:58.919Z,31584.00
2018-04-17T09:59:59.127Z,33184.00
2018-04-17T10:00:59.421Z,34016.00
2018-04-17T10:01:59.490Z,34336.00
2018-04-17T10:02:59.706Z,35168.00
2018-04-17T10:04:02.472Z,41408.00
2018-04-17T10:05:00.051Z,51648.00
2018-04-17T10:06:00.258Z,56352.00
2018-04-17T10:07:00.445Z,50720.00
2018-04-17T10:08:00.654Z,46624.00
2018-04-17T10:09:00.930Z,53728.00
2018-04-17T10:10:01.041Z,52800.00
2018-04-17T10:11:01.243Z,48736.00
2018-04-17T10:12:01.458Z,45888.00
2018-04-17T10:13:01.656Z,14952.00
2018-04-17T10:14:01.850Z,41152.00
2018-04-17T10:15:02.044Z,33920.00
2018-04-17T10:16:02.283Z,39488.00
2018-04-17T10:17:02.473Z,35072.00
2018-04-17T10:18:02.662Z,19584.00
2018-04-17T10:19:02.854Z,11556.00
2018-04-17T10:20:03.060Z,10628.00
2018-04-17T10:21:03.256Z,10196.00
2018-04-17T10:22:03.450Z,10240.00
2018-04-17T10:23:03.643Z,10960.00
2018-04-17T10:24:03.840Z,31648.00
2018-04-17T10:25:04.029Z,32128.00
2018-04-17T10:26:04.224Z,33280.00
2018-04-17T10:27:04.417Z,30784.00
2018-04-17T10:28:04.611Z,30208.00
2018-04-17T10:29:04.803Z,26912.00
2018-04-17T10:30:05.023Z,29952.00
2018-04-17T10:31:05.182Z,27520.00
2018-04-17T10:32:05.372Z,27648.00
2018-04-17T10:33:05.558Z,26688.00
2018-04-17T10:34:05.747Z,20512.00
2018-04-17T10:35:05.943Z,27712.00
2018-04-17T10:36:06.132Z,28960.00
2018-04-17T10:37:06.332Z,27456.00
2018-04-17T10:38:06.516Z,28960.00
2018-04-17T10:39:06.716Z,28416.00
2018-04-17T10:40:06.911Z,28192.00
2018-04-17T10:41:07.097Z,27456.00
2018-04-17T10:42:07.292Z,24352.00
2018-04-17T10:43:07.490Z,19232.00
2018-04-17T10:44:07.674Z,14368.00
2018-04-17T10:45:07.863Z,12848.00
2018-04-17T10:46:08.053Z,12368.00
2018-04-17T10:47:08.241Z,12220.00
2018-04-17T10:48:08.433Z,11952.00
2018-04-17T10:49:08.709Z,12056.00
2018-04-17T10:50:08.737Z,11936.00
2018-04-17T10:51:08.994Z,11816.00
2018-04-17T10:52:09.083Z,11780.00
2018-04-17T10:53:09.281Z,11684.00
2018-04-17T10:54:09.472Z,11504.00
2018-04-17T10:55:09.660Z,11332.00
2018-04-17T10:56:09.853Z,11096.00
2018-04-17T10:57:10.041Z,10852.00
2018-04-17T10:58:10.231Z,10688.00
2018-04-17T10:59:10.431Z,10492.00
2018-04-17T11:00:10.620Z,10340.00
2018-04-17T11:01:10.824Z,10148.00
2018-04-17T11:02:11.011Z,9892.00
2018-04-17T11:03:11.208Z,9616.00
2018-04-17T11:04:11.398Z,9312.00
2018-04-17T11:05:11.584Z,8936.00
2018-04-17T11:06:11.768Z,8532.00
2018-04-17T11:07:11.981Z,8184.00
2018-04-17T11:08:12.173Z,7952.00
2018-04-17T11:09:12.372Z,7876.00
2018-04-17T11:10:12.591Z,8024.00
2018-04-17T11:11:16.693Z,8188.00
2018-04-17T11:12:13.513Z,8200.00
2018-04-17T11:13:13.276Z,8232.00
2018-04-17T11:14:13.343Z,8204.00
2018-04-17T11:15:13.538Z,8104.00
2018-04-17T11:16:13.770Z,8016.00
2018-04-17T11:17:13.942Z,8000.00
2018-04-17T11:18:14.120Z,7912.00
2018-04-17T11:19:14.461Z,7824.00
2018-04-17T11:20:14.449Z,7756.00
2018-04-17T11:21:14.750Z,7756.00
2018-04-17T11:22:14.849Z,7908.00
2018-04-17T11:23:15.073Z,7912.00
2018-04-17T11:24:15.247Z,7772.00
2018-04-17T11:25:15.411Z,7704.00
2018-04-17T11:26:19.353Z,7600.00
2018-04-17T11:27:15.715Z,7368.00
2018-04-17T11:28:15.918Z,7324.00
2018-04-17T11:29:16.109Z,7428.00
2018-04-17T11:30:16.316Z,7636.00
2018-04-17T11:31:16.623Z,7916.00
2018-04-17T11:32:16.679Z,8072.00
2018-04-17T11:33:16.877Z,8068.00
2018-04-17T11:34:17.056Z,7896.00
2018-04-17T11:35:17.247Z,7756.00
2018-04-17T11:36:17.427Z,7448.00
2018-04-17T11:37:17.671Z,6768.00
2018-04-17T11:38:17.807Z,6072.00
2018-04-17T11:39:17.993Z,5488.00
2018-04-17T11:40:18.192Z,5640.00
2018-04-17T11:41:18.389Z,6528.00
2018-04-17T11:42:18.585Z,6712.00
2018-04-17T11:43:18.773Z,7284.00
2018-04-17T11:44:19.372Z,7940.00
2018-04-17T11:45:19.190Z,7992.00
2018-04-17T11:46:19.378Z,7848.00
2018-04-17T11:47:19.558Z,7688.00
2018-04-17T11:48:21.088Z,7388.00
2018-04-17T11:49:19.964Z,7032.00
2018-04-17T11:50:20.221Z,7300.00
2018-04-17T11:51:20.287Z,7176.00
2018-04-17T11:52:20.485Z,7392.00
2018-04-17T11:53:20.662Z,7640.00
2018-04-17T11:54:20.862Z,7456.00
2018-04-17T11:55:21.079Z,6816.00
2018-04-17T11:56:21.308Z,6612.00
2018-04-17T11:57:21.525Z,6640.00
2018-04-17T11:58:21.618Z,6544.00
2018-04-17T11:59:21.829Z,6504.00
2018-04-17T12:00:22.014Z,6464.00
2018-04-17T12:01:22.223Z,6508.00
2018-04-17T12:02:22.440Z,6528.00
2018-04-17T12:03:22.693Z,6620.00
2018-04-17T12:04:22.805Z,6892.00
2018-04-17T12:05:22.998Z,7080.00
2018-04-17T12:06:23.179Z,7252.00
2018-04-17T12:07:23.363Z,7028.00
2018-04-17T12:08:23.551Z,6876.00
2018-04-17T12:09:23.732Z,6664.00
2018-04-17T12:10:23.932Z,6608.00
2018-04-17T12:11:24.107Z,6660.00
2018-04-17T12:12:24.301Z,6580.00
2018-04-17T12:13:24.493Z,6428.00
2018-04-17T12:14:24.682Z,6272.00
2018-04-17T12:15:24.867Z,6052.00
2018-04-17T12:16:25.070Z,5908.00
2018-04-17T12:17:25.231Z,5872.00
2018-04-17T12:18:25.417Z,5772.00
2018-04-17T12:19:25.643Z,5892.00
2018-04-17T12:20:25.855Z,5992.00
2018-04-17T12:21:25.997Z,5548.00
2018-04-17T12:22:26.177Z,5400.00
2018-04-17T12:23:26.373Z,5640.00